METAR v bližini

 

LJLJ - Ljubljana/Brnik, Slovenia
Oddaljenost od postaje: Z 41km
Podatki zajeti: 22/04/2018 21:30
Jasno
Jasno
 Veter iz smeri V
Veter: V 6 km/h
Temperatura: 16°C
Rosišče: 7°C
Vlažnost: 55%
Tlak: 1017 hPa
Stanje: Jasno
Vidljivost: večja od 10 km
2018/04/22 19:30 LJLJ 221930Z 09003KT 060V120 CAVOK 16/07 Q1017 NOSIG
LJMB - Maribor, Slovenia
Oddaljenost od postaje: SV 63km
Podatki zajeti: 22/04/2018 21:30
Jasno
Jasno
 Veter iz smeri SSZ
Veter: SSZ 4 km/h
Temperatura: 20°C
Rosišče: 10°C
Vlažnost: 53%
Tlak: 1014 hPa
Stanje: Jasno
Vidljivost: večja od 10 km
2018/04/22 19:30 LJMB 221930Z 33002KT CAVOK 20/10 Q1014
 
LJPZ - Portoroz, Slovenia
Oddaljenost od postaje: JZ 130km
Podatki zajeti: 22/04/2018 21:30
Jasno
Jasno
 Veter iz smeri VJV
Veter: VJV 11 km/h
Temperatura: 14°C
Rosišče: 9°C
Vlažnost: 72%
Tlak: 1018 hPa
Stanje: Jasno
Vidljivost: večja od 10 km
2018/04/22 19:30 LJPZ 221930Z 12006KT CAVOK 14/09 Q1018
LJCE - Cerklje, Slovenia
Oddaljenost od postaje: VJV 49km
Podatki zajeti: 22/04/2018 21:30
Jasno
Jasno
 Veter iz smeri ZJZ
Veter: ZJZ 15 km/h
Temperatura: 18°C
Rosišče: 8°C
Vlažnost: 52%
Tlak: 1015 hPa
Stanje: Jasno
Vidljivost: večja od 10 km
2018/04/22 19:30 LJCE 221930Z 25008KT CAVOK 18/08 Q1015 RMK BLU
 
LDZA - Zagreb/Pleso, Croatia
Oddaljenost od postaje: VJV 96km
Podatki zajeti: 22/04/2018 21:30
Jasno
Jasno
 Veter iz smeri ZJZ
Veter: ZJZ 13 km/h
Temperatura: 19°C
Rosišče: 9°C
Vlažnost: 52%
Tlak: 1014 hPa
Stanje: Jasno
Vidljivost: večja od 10 km
2018/04/22 19:30 LDZA 221930Z 25007KT CAVOK 19/09 Q1014 NOSIG
LDRI - Rijeka/Omisalj, Croatia
Oddaljenost od postaje: JJZ 109km
Podatki zajeti: 22/04/2018 21:30
Jasno
Jasno
 Veter iz smeri SZ
Veter: SZ 6 km/h
Temperatura: 15°C
Rosišče: 10°C
Vlažnost: 72%
Tlak: 1018 hPa
Stanje: Jasno
Vidljivost: večja od 10 km
2018/04/22 19:30 LDRI 221930Z 31003KT CAVOK 15/10 Q1018
 
LDPL - Pula, Croatia
Oddaljenost od postaje: JJZ 164km
Podatki zajeti: 22/04/2018 21:30
Jasno
Jasno
 Veter iz smeri V
Veter: V 7 km/h
Temperatura: 10°C
Občutek mraza zaradi vetra: 9°C
Rosišče: 8°C
Vlažnost: 88%
Tlak: 1018 hPa
Stanje: Jasno
Vidljivost: večja od 10 km
2018/04/22 19:30 LDPL 221930Z 09004KT CAVOK 10/08 Q1018 NOSIG
LOWK - Klagenfurt(Civ/M, Austria
Oddaljenost od postaje: SZ 76km
Podatki zajeti: 22/04/2018 21:20
Rahlo oblačno
Rahlo oblačno
 Veter iz smeri SZ
Veter: SZ 9 km/h
Temperatura: 20°C
Rosišče: 10°C
Vlažnost: 53%
Tlak: 1015 hPa
Oblačnost: Rahlo oblačno
Vidljivost: 10 km
Podrobnosti o oblakih: Rahlo oblačno 3658 m
2018/04/22 19:20 LOWK 221920Z AUTO 32005KT 280V340 9999 FEW120 20/10 Q1015 NOSIG
 
LOWG - Graz (mil/Civ), Austria
Oddaljenost od postaje: SSV 100km
Podatki zajeti: 22/04/2018 21:20
Rahlo oblačno
Rahlo oblačno
 Veter iz smeri SSV
Veter: SSV 4 km/h
Temperatura: 19°C
Rosišče: 12°C
Vlažnost: 64%
Tlak: 1015 hPa
Oblačnost: Rahlo oblačno
Vidljivost: 10 km
Podrobnosti o oblakih: Rahlo oblačno 2134 m
Rahlo oblačno 2438 m
2018/04/22 19:20 LOWG 221920Z 02002KT 9999 FEW070 FEW080TCU 19/12 Q1015 NOSIG
LOWZ - Zell Am See, Austria
Oddaljenost od postaje: SZ 211km
Podatki zajeti: 31/12/2016 17:00
Ni posodobljen
Jasno
Jasno
 Veter iz smeri spremenljiv
Veter: spremenljiv 4 km/h
Temperatura: -4°C
Rosišče: -7°C
Vlažnost: 80%
Tlak: 1031 hPa
Oblačnost: Jasno
2016/12/31 16:00 LOWZ 311600Z VRB02KT 50KM SKC M04/M07 Q1031
 
LOAN - Wr.neustadt East, Austria
Oddaljenost od postaje: SSV 212km
Podatki zajeti: 22/04/2018 20:00
Ni posodobljen
Rahlo oblačno
Rahlo oblačno
 Veter iz smeri VJV
Veter: VJV 4 km/h
Oblačnost: Rahlo oblačno
Podrobnosti o oblakih: Rahlo oblačno 1219 m
2018/04/22 18:00 LOAN 221800Z 12002KT 40KM FEW040CU
LIPQ - Ronchi Legionari, Italy
Oddaljenost od postaje: JZ 35km
Podatki zajeti: 22/04/2018 21:20
Jasno
Jasno
 Veter iz smeri spremenljiv
Veter: spremenljiv 2 km/h
Temperatura: 15°C
Rosišče: 11°C
Vlažnost: 77%
Tlak: 1017 hPa
Stanje: Jasno
Vidljivost: večja od 10 km
2018/04/22 19:20 LIPQ 221920Z VRB01KT CAVOK 15/11 Q1017
 
LIVT - Trieste, Italy
Oddaljenost od postaje: ZJZ 109km
Podatki zajeti: 22/04/2018 20:55
Jasno
Jasno
 Veter iz smeri SV
Veter: SV 4 km/h
Temperatura: 17°C
Rosišče: 7°C
Vlažnost: 52%
Tlak: 1017 hPa
Stanje: Jasno
Vidljivost: večja od 10 km
2018/04/22 18:55 LIVT 221855Z 04002KT CAVOK 17/07 Q1017 RMK SKC QUK / QUL / VIS MAR 20 KM VIS MIN 9999
LIVO - Tarvisio, Italy
Oddaljenost od postaje: SSZ 49km
Podatki zajeti: 22/04/2018 19:55
Ni posodobljen
Jasno
Jasno
 Veter iz smeri ZJZ
Veter: ZJZ 6 km/h
Temperatura: 20°C
Rosišče: 12°C
Vlažnost: 60%
Tlak: 1016 hPa
Stanje: Jasno
Vidljivost: večja od 10 km
2018/04/22 17:55 LIVO 221755Z 25003KT CAVOK 20/12 Q1016 RMK SKC VIS MIN 9999
 
LIPZ - Venezia/Tessera, Italy
Oddaljenost od postaje: ZJZ 217km
Podatki zajeti: 22/04/2018 21:20
Jasno
Jasno
 Veter iz smeri JJV
Veter: JJV 7 km/h
Temperatura: 18°C
Rosišče: 14°C
Vlažnost: 78%
Tlak: 1017 hPa
Stanje: Jasno
Vidljivost: večja od 10 km
2018/04/22 19:20 LIPZ 221920Z 16004KT 130V190 CAVOK 18/14 Q1017 NOSIG
LHSM - Balaton, Hungary
Oddaljenost od postaje: VSV 177km
Podatki zajeti: 22/04/2018 21:15
Jasno
Jasno
 Veter iz smeri ZSZ
Veter: ZSZ 6 km/h
Temperatura: 17°C
Rosišče: 13°C
Vlažnost: 77%
Tlak: 1014 hPa
Stanje: Jasno
Vidljivost: večja od 10 km
2018/04/22 19:15 LHSM 221915Z 29003KT CAVOK 17/13 Q1014